Terminal Aerodrome Forecast
Issued by NWS

Home | Current Version | Previous Version | Text Only | Print | Product List | Glossary On
Versions: 1 2 3 4 5 6 7 8 9 10 11 12 13 14
000
FTUS45 KSLC 130408 AAB
TAFPVU
TAF AMD
KPVU 130408Z 1304/1324 00000KT 1/2SM FZFG OVC005
     FM131700 14004KT 4SM BR BKN004
     FM132000 32006KT P6SM BKN120=

USA.gov is the U.S. government's official web portal to all federal, state and local government web resources and services.